Aviation Digital Data Service (ADDS)

Output produced by METARs form (2301 UTC 26 February 2020)
found at http://www.aviationweather.gov/metar/data/
 
METAR text: RJNT 262200Z 27004KT 9999 -SHSNRA FEW010 FEW020TCU BKN025 03/00 Q1022
Conditions at: RJNT (TOYAMA AIRPORT , JP) observed 2200 UTC 26 February 2020
Temperature: 3.0°C (37°F)
Dewpoint: 0.0°C (32°F) [RH = 81%]
Pressure (altimeter): 30.18 inches Hg (1022.0 mb)
Winds: from the W (270 degrees) at 5 MPH (4 knots; 2.1 m/s)
Visibility: 6 or more miles (10+ km)
Ceiling: 2500 feet AGL
Clouds: few clouds at 1000 feet AGL
few clouds at 2000 feet AGL
broken clouds at 2500 feet AGL
Weather: -SHSN -SHRA  (light snow showers, light rain showers)

METAR text: RJNT 262110Z 26006KT 9999 -SHRASN FEW010 SCT025 BKN040 03/00 Q1021 RMK 1ST010 3CU025 5SC040 A3017
Conditions at: RJNT (TOYAMA AIRPORT , JP) observed 2110 UTC 26 February 2020
Temperature: 3.0°C (37°F)
Dewpoint: 0.0°C (32°F) [RH = 81%]
Pressure (altimeter): 30.15 inches Hg (1021.0 mb)
Winds: from the W (260 degrees) at 7 MPH (6 knots; 3.1 m/s)
Visibility: 6 or more miles (10+ km)
Ceiling: 4000 feet AGL
Clouds: few clouds at 1000 feet AGL
scattered clouds at 2500 feet AGL
broken clouds at 4000 feet AGL
Weather: -SHRA -SHSN  (light rain showers, light snow showers)

METAR text: RJNT 261200Z 35003KT 8000 -SHRA FEW005 SCT010 BKN015 05/03 Q1020
Conditions at: RJNT (TOYAMA AIRPORT , JP) observed 1200 UTC 26 February 2020
Temperature: 5.0°C (41°F)
Dewpoint: 3.0°C (37°F) [RH = 87%]
Pressure (altimeter): 30.12 inches Hg (1020.0 mb)
Winds: from the N (350 degrees) at 3 MPH (3 knots; 1.5 m/s)
Visibility: 5 miles ( 8 km)
Ceiling: 1500 feet AGL
Clouds: few clouds at 500 feet AGL
scattered clouds at 1000 feet AGL
broken clouds at 1500 feet AGL
Weather: -SHRA  (light rain showers)

METAR text: RJNT 261130Z 34006KT 8000 -SHRA FEW005 SCT010 BKN015 05/03 Q1019 RMK 1ST005 3CU010 5SC015 A3011
Conditions at: RJNT (TOYAMA AIRPORT , JP) observed 1130 UTC 26 February 2020
Temperature: 5.0°C (41°F)
Dewpoint: 3.0°C (37°F) [RH = 87%]
Pressure (altimeter): 30.09 inches Hg (1019.0 mb)
Winds: from the NNW (340 degrees) at 7 MPH (6 knots; 3.1 m/s)
Visibility: 5 miles ( 8 km)
Ceiling: 1500 feet AGL
Clouds: few clouds at 500 feet AGL
scattered clouds at 1000 feet AGL
broken clouds at 1500 feet AGL
Weather: -SHRA  (light rain showers)

METAR text: RJNT 261115Z 33007KT 300V010 8000 SHRA FEW005 SCT010 BKN017 05/03 Q1019 RMK 1ST005 3CU010 5SC017 A3011
Conditions at: RJNT (TOYAMA AIRPORT , JP) observed 1115 UTC 26 February 2020
Temperature: 5.0°C (41°F)
Dewpoint: 3.0°C (37°F) [RH = 87%]
Pressure (altimeter): 30.09 inches Hg (1019.0 mb)
Winds: from the NNW (330 degrees) at 8 MPH (7 knots; 3.6 m/s)
Visibility: 5 miles ( 8 km)
Ceiling: 1700 feet AGL
Clouds: few clouds at 500 feet AGL
scattered clouds at 1000 feet AGL
broken clouds at 1700 feet AGL
Weather: SHRA  (rain showers)

METAR text: RJNT 261100Z 28004KT 210V320 6000 -SHRA FEW005 SCT010 BKN020 05/03 Q1019
Conditions at: RJNT (TOYAMA AIRPORT , JP) observed 1100 UTC 26 February 2020
Temperature: 5.0°C (41°F)
Dewpoint: 3.0°C (37°F) [RH = 87%]
Pressure (altimeter): 30.09 inches Hg (1019.0 mb)
Winds: from the W (280 degrees) at 5 MPH (4 knots; 2.1 m/s)
Visibility: 4 miles ( 6 km)
Ceiling: 2000 feet AGL
Clouds: few clouds at 500 feet AGL
scattered clouds at 1000 feet AGL
broken clouds at 2000 feet AGL
Weather: -SHRA  (light rain showers)

METAR text: RJNT 261000Z 36003KT 310V030 8000 -SHRA FEW005 BKN020 06/03 Q1019
Conditions at: RJNT (TOYAMA AIRPORT , JP) observed 1000 UTC 26 February 2020
Temperature: 6.0°C (43°F)
Dewpoint: 3.0°C (37°F) [RH = 81%]
Pressure (altimeter): 30.09 inches Hg (1019.0 mb)
Winds: from the N (360 degrees) at 3 MPH (3 knots; 1.5 m/s)
Visibility: 5 miles ( 8 km)
Ceiling: 2000 feet AGL
Clouds: few clouds at 500 feet AGL
broken clouds at 2000 feet AGL
Weather: -SHRA  (light rain showers)

METAR text: RJNT 260900Z 02005KT 9999 -SHRA FEW005 SCT020 BKN025 06/03 Q1018
Conditions at: RJNT (TOYAMA AIRPORT , JP) observed 0900 UTC 26 February 2020
Temperature: 6.0°C (43°F)
Dewpoint: 3.0°C (37°F) [RH = 81%]
Pressure (altimeter): 30.06 inches Hg (1018.0 mb)
Winds: from the NNE (20 degrees) at 6 MPH (5 knots; 2.6 m/s)
Visibility: 6 or more miles (10+ km)
Ceiling: 2500 feet AGL
Clouds: few clouds at 500 feet AGL
scattered clouds at 2000 feet AGL
broken clouds at 2500 feet AGL
Weather: -SHRA  (light rain showers)

METAR text: RJNT 260800Z 36007KT 6000 -SHRA FEW007 BKN020 07/04 Q1018
Conditions at: RJNT (TOYAMA AIRPORT , JP) observed 0800 UTC 26 February 2020
Temperature: 7.0°C (45°F)
Dewpoint: 4.0°C (39°F) [RH = 81%]
Pressure (altimeter): 30.06 inches Hg (1018.0 mb)
Winds: from the N (360 degrees) at 8 MPH (7 knots; 3.6 m/s)
Visibility: 4 miles ( 6 km)
Ceiling: 2000 feet AGL
Clouds: few clouds at 700 feet AGL
broken clouds at 2000 feet AGL
Weather: -SHRA  (light rain showers)

METAR text: RJNT 260700Z 02007KT 9999 -SHRA FEW007 SCT020 BKN025 08/03 Q1017
Conditions at: RJNT (TOYAMA AIRPORT , JP) observed 0700 UTC 26 February 2020
Temperature: 8.0°C (46°F)
Dewpoint: 3.0°C (37°F) [RH = 71%]
Pressure (altimeter): 30.03 inches Hg (1017.0 mb)
Winds: from the NNE (20 degrees) at 8 MPH (7 knots; 3.6 m/s)
Visibility: 6 or more miles (10+ km)
Ceiling: 2500 feet AGL
Clouds: few clouds at 700 feet AGL
scattered clouds at 2000 feet AGL
broken clouds at 2500 feet AGL
Weather: -SHRA  (light rain showers)

METAR text: RJNT 260600Z 02004KT 340V060 9999 FEW010 SCT020 BKN025 09/03 Q1017
Conditions at: RJNT (TOYAMA AIRPORT , JP) observed 0600 UTC 26 February 2020
Temperature: 9.0°C (48°F)
Dewpoint: 3.0°C (37°F) [RH = 66%]
Pressure (altimeter): 30.03 inches Hg (1017.0 mb)
Winds: from the NNE (20 degrees) at 5 MPH (4 knots; 2.1 m/s)
Visibility: 6 or more miles (10+ km)
Ceiling: 2500 feet AGL
Clouds: few clouds at 1000 feet AGL
scattered clouds at 2000 feet AGL
broken clouds at 2500 feet AGL
Weather: no significant weather observed at this time

METAR text: RJNT 260500Z 04007KT 360V080 9999 VCSH FEW010 SCT020 BKN030 08/03 Q1017
Conditions at: RJNT (TOYAMA AIRPORT , JP) observed 0500 UTC 26 February 2020
Temperature: 8.0°C (46°F)
Dewpoint: 3.0°C (37°F) [RH = 71%]
Pressure (altimeter): 30.03 inches Hg (1017.0 mb)
Winds: from the NE (40 degrees) at 8 MPH (7 knots; 3.6 m/s)
Visibility: 6 or more miles (10+ km)
Ceiling: 3000 feet AGL
Clouds: few clouds at 1000 feet AGL
scattered clouds at 2000 feet AGL
broken clouds at 3000 feet AGL
Weather: VCSH  (showers in vicinity)

METAR text: RJNT 260400Z 03006KT 9999 -SHRA FEW005 BKN020 08/04 Q1017
Conditions at: RJNT (TOYAMA AIRPORT , JP) observed 0400 UTC 26 February 2020
Temperature: 8.0°C (46°F)
Dewpoint: 4.0°C (39°F) [RH = 76%]
Pressure (altimeter): 30.03 inches Hg (1017.0 mb)
Winds: from the NNE (30 degrees) at 7 MPH (6 knots; 3.1 m/s)
Visibility: 6 or more miles (10+ km)
Ceiling: 2000 feet AGL
Clouds: few clouds at 500 feet AGL
broken clouds at 2000 feet AGL
Weather: -SHRA  (light rain showers)

METAR text: RJNT 260300Z 01005KT 340V060 9999 -SHRA FEW010 BKN020 08/04 Q1017
Conditions at: RJNT (TOYAMA AIRPORT , JP) observed 0300 UTC 26 February 2020
Temperature: 8.0°C (46°F)
Dewpoint: 4.0°C (39°F) [RH = 76%]
Pressure (altimeter): 30.03 inches Hg (1017.0 mb)
Winds: from the N (10 degrees) at 6 MPH (5 knots; 2.6 m/s)
Visibility: 6 or more miles (10+ km)
Ceiling: 2000 feet AGL
Clouds: few clouds at 1000 feet AGL
broken clouds at 2000 feet AGL
Weather: -SHRA  (light rain showers)

METAR text: RJNT 260200Z 03006KT 010V080 9999 FEW010 BKN020 08/04 Q1018
Conditions at: RJNT (TOYAMA AIRPORT , JP) observed 0200 UTC 26 February 2020
Temperature: 8.0°C (46°F)
Dewpoint: 4.0°C (39°F) [RH = 76%]
Pressure (altimeter): 30.06 inches Hg (1018.0 mb)
Winds: from the NNE (30 degrees) at 7 MPH (6 knots; 3.1 m/s)
Visibility: 6 or more miles (10+ km)
Ceiling: 2000 feet AGL
Clouds: few clouds at 1000 feet AGL
broken clouds at 2000 feet AGL
Weather: no significant weather observed at this time

METAR text: RJNT 260100Z 02007KT 350V060 9999 FEW010 SCT015 BKN020 08/04 Q1017
Conditions at: RJNT (TOYAMA AIRPORT , JP) observed 0100 UTC 26 February 2020
Temperature: 8.0°C (46°F)
Dewpoint: 4.0°C (39°F) [RH = 76%]
Pressure (altimeter): 30.03 inches Hg (1017.0 mb)
Winds: from the NNE (20 degrees) at 8 MPH (7 knots; 3.6 m/s)
Visibility: 6 or more miles (10+ km)
Ceiling: 2000 feet AGL
Clouds: few clouds at 1000 feet AGL
scattered clouds at 1500 feet AGL
broken clouds at 2000 feet AGL
Weather: no significant weather observed at this time

METAR text: RJNT 260000Z 03006KT 350V070 9999 FEW010 SCT020 BKN030 07/05 Q1017
Conditions at: RJNT (TOYAMA AIRPORT , JP) observed 0000 UTC 26 February 2020
Temperature: 7.0°C (45°F)
Dewpoint: 5.0°C (41°F) [RH = 87%]
Pressure (altimeter): 30.03 inches Hg (1017.0 mb)
Winds: from the NNE (30 degrees) at 7 MPH (6 knots; 3.1 m/s)
Visibility: 6 or more miles (10+ km)
Ceiling: 3000 feet AGL
Clouds: few clouds at 1000 feet AGL
scattered clouds at 2000 feet AGL
broken clouds at 3000 feet AGL
Weather: no significant weather observed at this time

METAR text: RJNT 252300Z 03005KT 9999 FEW010 BKN050 07/05 Q1017
Conditions at: RJNT (TOYAMA AIRPORT , JP) observed 2300 UTC 25 February 2020
Temperature: 7.0°C (45°F)
Dewpoint: 5.0°C (41°F) [RH = 87%]
Pressure (altimeter): 30.03 inches Hg (1017.0 mb)
Winds: from the NNE (30 degrees) at 6 MPH (5 knots; 2.6 m/s)
Visibility: 6 or more miles (10+ km)
Ceiling: 5000 feet AGL
Clouds: few clouds at 1000 feet AGL
broken clouds at 5000 feet AGL
Weather: no significant weather observed at this time

METAR text: RJNT 252200Z 03005KT 350V070 9999 -RA FEW010 SCT035 BKN040 06/05 Q1016
Conditions at: RJNT (TOYAMA AIRPORT , JP) observed 2200 UTC 25 February 2020
Temperature: 6.0°C (43°F)
Dewpoint: 5.0°C (41°F) [RH = 93%]
Pressure (altimeter): 30.00 inches Hg (1016.0 mb)
Winds: from the NNE (30 degrees) at 6 MPH (5 knots; 2.6 m/s)
Visibility: 6 or more miles (10+ km)
Ceiling: 4000 feet AGL
Clouds: few clouds at 1000 feet AGL
scattered clouds at 3500 feet AGL
broken clouds at 4000 feet AGL
Weather: -RA  (light rain)

METAR text: RJNT 252110Z VRB02KT 9999 -RA FEW010 SCT035 BKN040 06/05 Q1016 RMK 1ST010 3SC035 6SC040 A3000
Conditions at: RJNT (TOYAMA AIRPORT , JP) observed 2110 UTC 25 February 2020
Temperature: 6.0°C (43°F)
Dewpoint: 5.0°C (41°F) [RH = 93%]
Pressure (altimeter): 30.00 inches Hg (1016.0 mb)
Winds: variable direction winds at 2 MPH (2 knots; 1.0 m/s)
Visibility: 6 or more miles (10+ km)
Ceiling: 4000 feet AGL
Clouds: few clouds at 1000 feet AGL
scattered clouds at 3500 feet AGL
broken clouds at 4000 feet AGL
Weather: -RA  (light rain)

METAR text: RJNT 251219Z 06004KT 020V090 3500 -RA BR FEW002 SCT005 BKN015 07/07 Q1017 RMK 1ST002 3ST005 5SC015 A3005
Conditions at: RJNT (TOYAMA AIRPORT , JP) observed 1219 UTC 25 February 2020
Temperature: 7.0°C (45°F)
Dewpoint: 7.0°C (45°F) [RH = 100%]
Pressure (altimeter): 30.03 inches Hg (1017.0 mb)
Winds: from the ENE (60 degrees) at 5 MPH (4 knots; 2.1 m/s)
Visibility: 2.17 miles (3.49 km)
Ceiling: 1500 feet AGL
Clouds: few clouds at 200 feet AGL
scattered clouds at 500 feet AGL
broken clouds at 1500 feet AGL
Weather: -RA BR  (light rain, mist)

METAR text: RJNT 251200Z VRB02KT 3000 -RA BR FEW002 SCT006 BKN035 07/07 Q1017
Conditions at: RJNT (TOYAMA AIRPORT , JP) observed 1200 UTC 25 February 2020
Temperature: 7.0°C (45°F)
Dewpoint: 7.0°C (45°F) [RH = 100%]
Pressure (altimeter): 30.03 inches Hg (1017.0 mb)
Winds: variable direction winds at 2 MPH (2 knots; 1.0 m/s)
Visibility: 1.86 miles (2.99 km)
Ceiling: 3500 feet AGL
Clouds: few clouds at 200 feet AGL
scattered clouds at 600 feet AGL
broken clouds at 3500 feet AGL
Weather: -RA BR  (light rain, mist)

METAR text: RJNT 251124Z VRB02KT 3000 -RA BR FEW003 SCT005 BKN035 07/07 Q1017 RMK 1ST003 3ST005 6SC035 A3005
Conditions at: RJNT (TOYAMA AIRPORT , JP) observed 1124 UTC 25 February 2020
Temperature: 7.0°C (45°F)
Dewpoint: 7.0°C (45°F) [RH = 100%]
Pressure (altimeter): 30.03 inches Hg (1017.0 mb)
Winds: variable direction winds at 2 MPH (2 knots; 1.0 m/s)
Visibility: 1.86 miles (2.99 km)
Ceiling: 3500 feet AGL
Clouds: few clouds at 300 feet AGL
scattered clouds at 500 feet AGL
broken clouds at 3500 feet AGL
Weather: -RA BR  (light rain, mist)

Forecast for: RJNT (TOYAMA AIRPORT , JP)
Text: TAF RJNT 261705Z 2618/2800 24004KT 8000 -SHRASN FEW010 BKN020
Forecast period: 1800 to 2100 UTC 26 February 2020
Forecast type: FROM: standard forecast or significant change
Winds: from the WSW (240 degrees) at 5 MPH (4 knots; 2.1 m/s)
Visibility: 5 miles (8 km)
Ceiling: 2000 feet AGL
Clouds: few clouds at 1000 feet AGL
broken clouds at 2000 feet AGL
Weather: -SHRA -SHSN  (light rain showers, light snow showers)
Text: BECMG 2621/2623 34008KT
Forecast period: 2100 UTC 26 February 2020 to 0900 UTC 27 February 2020
Forecast type: BECOMING: Conditions expected to become as follows by 2300 UTC 26 February 2020
Winds: from the NNW (340 degrees) at 9 MPH (8 knots; 4.1 m/s)
Visibility: 5 miles (8 km)
Ceiling: 2000 feet AGL
Clouds: few clouds at 1000 feet AGL
broken clouds at 2000 feet AGL
Weather: -SHRA -SHSN  (light rain showers, light snow showers)
Text: TEMPO 2703/2706 4000 -SHSNRA BR
Forecast period: 0300 to 0600 UTC 27 February 2020
Forecast type: TEMPORARY: The following changes expected for less than half the time period
Visibility: 2.49 miles (4.01 km)
Ceiling: unknown
Clouds: missing
Weather: -SHSN -SHRA BR  (light snow showers, light rain showers, mist)
Text: TEMPO 2706/2709 3000 -SHSNGS FEW008 BKN015 FEW020CB
Forecast period: 0600 to 0900 UTC 27 February 2020
Forecast type: TEMPORARY: The following changes expected for less than half the time period
Visibility: 1.86 miles (2.99 km)
Ceiling: 1500 feet AGL
Clouds: few clouds at 800 feet AGL
broken clouds at 1500 feet AGL
few clouds at 2000 feet AGL
Weather: -SHSN -SHGS  (light snow showers, unknown weather)
Text: BECMG 2709/2712 24004KT
Forecast period: 0900 UTC 27 February 2020 to 0000 UTC 28 February 2020
Forecast type: BECOMING: Conditions expected to become as follows by 1200 UTC 27 February 2020
Winds: from the WSW (240 degrees) at 5 MPH (4 knots; 2.1 m/s)
Visibility: 5 miles (8 km)
Ceiling: 2000 feet AGL
Clouds: few clouds at 1000 feet AGL
broken clouds at 2000 feet AGL
Weather: -SHRA -SHSN  (light rain showers, light snow showers)